sensor_id;sensor_type;location;lat;lon;timestamp;P1;durP1;ratioP1;P2;durP2;ratioP2
665;SDS011;315;48.738;9.126;2023-12-04T00:01:52;19.20;;;12.70;;
665;SDS011;315;48.738;9.126;2023-12-04T00:04:18;21.10;;;13.60;;
665;SDS011;315;48.738;9.126;2023-12-04T00:06:43;22.13;;;14.83;;
665;SDS011;315;48.738;9.126;2023-12-04T00:09:09;23.33;;;16.60;;
665;SDS011;315;48.738;9.126;2023-12-04T00:11:34;23.80;;;15.13;;
665;SDS011;315;48.738;9.126;2023-12-04T00:14:00;19.37;;;14.80;;
665;SDS011;315;48.738;9.126;2023-12-04T00:16:26;23.93;;;14.30;;
665;SDS011;315;48.738;9.126;2023-12-04T00:18:51;23.57;;;15.07;;
665;SDS011;315;48.738;9.126;2023-12-04T00:21:17;15.40;;;12.67;;
665;SDS011;315;48.738;9.126;2023-12-04T00:23:42;19.60;;;13.77;;
665;SDS011;315;48.738;9.126;2023-12-04T00:26:08;18.73;;;13.50;;
665;SDS011;315;48.738;9.126;2023-12-04T00:28:35;17.67;;;13.83;;
665;SDS011;315;48.738;9.126;2023-12-04T00:31:02;18.30;;;14.57;;
665;SDS011;315;48.738;9.126;2023-12-04T00:33:27;16.97;;;13.37;;
665;SDS011;315;48.738;9.126;2023-12-04T00:35:53;22.93;;;12.60;;
665;SDS011;315;48.738;9.126;2023-12-04T00:38:18;20.47;;;12.40;;
665;SDS011;315;48.738;9.126;2023-12-04T00:40:44;21.03;;;14.10;;
665;SDS011;315;48.738;9.126;2023-12-04T00:43:09;22.43;;;13.70;;
665;SDS011;315;48.738;9.126;2023-12-04T00:45:35;19.50;;;13.80;;
665;SDS011;315;48.738;9.126;2023-12-04T00:48:01;18.30;;;12.83;;
665;SDS011;315;48.738;9.126;2023-12-04T00:50:27;16.93;;;13.30;;
665;SDS011;315;48.738;9.126;2023-12-04T00:52:53;21.23;;;13.00;;
665;SDS011;315;48.738;9.126;2023-12-04T00:55:19;18.20;;;12.77;;
665;SDS011;315;48.738;9.126;2023-12-04T00:57:45;18.30;;;12.60;;
665;SDS011;315;48.738;9.126;2023-12-04T01:00:10;19.53;;;13.57;;
665;SDS011;315;48.738;9.126;2023-12-04T01:02:36;19.90;;;13.37;;
665;SDS011;315;48.738;9.126;2023-12-04T01:05:02;18.10;;;13.57;;
665;SDS011;315;48.738;9.126;2023-12-04T01:07:28;21.47;;;13.60;;
665;SDS011;315;48.738;9.126;2023-12-04T01:09:54;19.10;;;12.63;;
665;SDS011;315;48.738;9.126;2023-12-04T01:12:19;18.77;;;11.60;;
665;SDS011;315;48.738;9.126;2023-12-04T01:14:46;20.53;;;13.23;;
665;SDS011;315;48.738;9.126;2023-12-04T01:17:11;21.10;;;13.50;;
665;SDS011;315;48.738;9.126;2023-12-04T01:19:37;22.43;;;13.60;;
665;SDS011;315;48.738;9.126;2023-12-04T01:22:02;17.70;;;12.80;;
665;SDS011;315;48.738;9.126;2023-12-04T01:24:28;21.83;;;13.73;;
665;SDS011;315;48.738;9.126;2023-12-04T01:26:54;18.00;;;13.27;;
665;SDS011;315;48.738;9.126;2023-12-04T01:29:19;17.40;;;13.00;;
665;SDS011;315;48.738;9.126;2023-12-04T01:31:44;17.53;;;12.40;;
665;SDS011;315;48.738;9.126;2023-12-04T01:34:10;20.30;;;13.83;;
665;SDS011;315;48.738;9.126;2023-12-04T01:36:39;22.20;;;13.87;;
665;SDS011;315;48.738;9.126;2023-12-04T01:39:05;19.60;;;12.77;;
665;SDS011;315;48.738;9.126;2023-12-04T01:41:31;17.97;;;12.60;;
665;SDS011;315;48.738;9.126;2023-12-04T01:43:56;20.23;;;13.00;;
665;SDS011;315;48.738;9.126;2023-12-04T01:46:22;17.57;;;13.67;;
665;SDS011;315;48.738;9.126;2023-12-04T01:48:48;17.63;;;12.77;;
665;SDS011;315;48.738;9.126;2023-12-04T01:51:14;17.70;;;12.93;;
665;SDS011;315;48.738;9.126;2023-12-04T01:53:42;19.67;;;12.70;;
665;SDS011;315;48.738;9.126;2023-12-04T01:56:08;26.23;;;12.27;;
665;SDS011;315;48.738;9.126;2023-12-04T01:58:34;19.63;;;13.93;;
665;SDS011;315;48.738;9.126;2023-12-04T02:01:00;18.83;;;13.27;;
665;SDS011;315;48.738;9.126;2023-12-04T02:03:26;18.80;;;12.20;;
665;SDS011;315;48.738;9.126;2023-12-04T02:05:52;22.93;;;14.23;;
665;SDS011;315;48.738;9.126;2023-12-04T02:08:18;17.93;;;13.07;;
665;SDS011;315;48.738;9.126;2023-12-04T02:10:44;18.17;;;12.27;;
665;SDS011;315;48.738;9.126;2023-12-04T02:13:09;17.87;;;12.07;;
665;SDS011;315;48.738;9.126;2023-12-04T02:15:35;18.60;;;13.30;;
665;SDS011;315;48.738;9.126;2023-12-04T02:18:02;18.43;;;12.87;;
665;SDS011;315;48.738;9.126;2023-12-04T02:20:34;18.90;;;12.27;;
665;SDS011;315;48.738;9.126;2023-12-04T02:23:01;19.27;;;12.80;;
665;SDS011;315;48.738;9.126;2023-12-04T02:25:27;21.17;;;12.40;;
665;SDS011;315;48.738;9.126;2023-12-04T02:27:53;22.23;;;13.03;;
665;SDS011;315;48.738;9.126;2023-12-04T02:30:21;15.30;;;11.63;;
665;SDS011;315;48.738;9.126;2023-12-04T02:32:49;19.10;;;13.20;;
665;SDS011;315;48.738;9.126;2023-12-04T02:35:18;21.20;;;13.03;;
665;SDS011;315;48.738;9.126;2023-12-04T02:37:46;18.90;;;13.17;;
665;SDS011;315;48.738;9.126;2023-12-04T02:40:12;19.23;;;12.13;;
665;SDS011;315;48.738;9.126;2023-12-04T02:42:38;20.57;;;13.47;;
665;SDS011;315;48.738;9.126;2023-12-04T02:45:04;16.50;;;11.50;;
665;SDS011;315;48.738;9.126;2023-12-04T02:47:30;18.10;;;12.50;;
665;SDS011;315;48.738;9.126;2023-12-04T02:49:56;18.47;;;13.53;;
665;SDS011;315;48.738;9.126;2023-12-04T02:52:21;23.00;;;13.30;;
665;SDS011;315;48.738;9.126;2023-12-04T02:54:47;16.10;;;12.97;;
665;SDS011;315;48.738;9.126;2023-12-04T02:57:12;20.00;;;13.03;;
665;SDS011;315;48.738;9.126;2023-12-04T02:59:38;17.70;;;11.80;;
665;SDS011;315;48.738;9.126;2023-12-04T03:02:03;18.27;;;12.53;;
665;SDS011;315;48.738;9.126;2023-12-04T03:04:29;17.00;;;12.00;;
665;SDS011;315;48.738;9.126;2023-12-04T03:06:55;16.90;;;12.50;;
665;SDS011;315;48.738;9.126;2023-12-04T03:09:21;18.63;;;12.87;;
665;SDS011;315;48.738;9.126;2023-12-04T03:11:46;18.03;;;12.23;;
665;SDS011;315;48.738;9.126;2023-12-04T03:14:12;20.37;;;12.70;;
665;SDS011;315;48.738;9.126;2023-12-04T03:16:37;16.07;;;9.70;;
665;SDS011;315;48.738;9.126;2023-12-04T03:19:03;19.17;;;10.73;;
665;SDS011;315;48.738;9.126;2023-12-04T03:21:29;20.43;;;10.87;;
665;SDS011;315;48.738;9.126;2023-12-04T03:23:54;17.50;;;11.10;;
665;SDS011;315;48.738;9.126;2023-12-04T03:26:20;18.03;;;12.30;;
665;SDS011;315;48.738;9.126;2023-12-04T03:28:45;16.60;;;11.67;;
665;SDS011;315;48.738;9.126;2023-12-04T03:31:11;21.20;;;13.80;;
665;SDS011;315;48.738;9.126;2023-12-04T03:33:37;21.33;;;14.07;;
665;SDS011;315;48.738;9.126;2023-12-04T03:36:02;21.63;;;12.80;;
665;SDS011;315;48.738;9.126;2023-12-04T03:38:28;25.27;;;15.60;;
665;SDS011;315;48.738;9.126;2023-12-04T03:40:54;20.33;;;12.67;;
665;SDS011;315;48.738;9.126;2023-12-04T03:43:19;18.57;;;12.53;;
665;SDS011;315;48.738;9.126;2023-12-04T03:45:45;20.20;;;13.00;;
665;SDS011;315;48.738;9.126;2023-12-04T03:48:10;18.20;;;11.23;;
665;SDS011;315;48.738;9.126;2023-12-04T03:50:36;20.53;;;11.10;;
665;SDS011;315;48.738;9.126;2023-12-04T03:53:01;15.70;;;11.77;;
665;SDS011;315;48.738;9.126;2023-12-04T03:55:27;15.90;;;11.20;;
665;SDS011;315;48.738;9.126;2023-12-04T03:57:53;16.60;;;11.63;;
665;SDS011;315;48.738;9.126;2023-12-04T04:00:19;15.10;;;10.97;;
665;SDS011;315;48.738;9.126;2023-12-04T04:02:45;18.03;;;11.70;;
665;SDS011;315;48.738;9.126;2023-12-04T04:05:10;14.77;;;10.70;;
665;SDS011;315;48.738;9.126;2023-12-04T04:07:36;18.40;;;13.17;;
665;SDS011;315;48.738;9.126;2023-12-04T04:10:02;16.87;;;11.23;;
665;SDS011;315;48.738;9.126;2023-12-04T04:12:29;17.50;;;12.20;;
665;SDS011;315;48.738;9.126;2023-12-04T04:14:55;14.33;;;10.13;;
665;SDS011;315;48.738;9.126;2023-12-04T04:17:20;16.43;;;10.30;;
665;SDS011;315;48.738;9.126;2023-12-04T04:19:45;14.30;;;10.40;;
665;SDS011;315;48.738;9.126;2023-12-04T04:22:11;19.67;;;11.40;;
665;SDS011;315;48.738;9.126;2023-12-04T04:24:37;16.80;;;9.70;;
665;SDS011;315;48.738;9.126;2023-12-04T04:27:02;15.10;;;11.43;;
665;SDS011;315;48.738;9.126;2023-12-04T04:29:28;14.70;;;10.50;;
665;SDS011;315;48.738;9.126;2023-12-04T04:31:53;14.57;;;9.30;;
665;SDS011;315;48.738;9.126;2023-12-04T04:34:20;21.90;;;11.80;;
665;SDS011;315;48.738;9.126;2023-12-04T04:36:46;17.07;;;11.47;;
665;SDS011;315;48.738;9.126;2023-12-04T04:39:12;20.63;;;12.90;;
665;SDS011;315;48.738;9.126;2023-12-04T04:41:38;17.27;;;11.63;;
665;SDS011;315;48.738;9.126;2023-12-04T04:44:05;15.97;;;10.57;;
665;SDS011;315;48.738;9.126;2023-12-04T04:46:30;17.40;;;11.30;;
665;SDS011;315;48.738;9.126;2023-12-04T04:48:56;16.40;;;10.87;;
665;SDS011;315;48.738;9.126;2023-12-04T04:51:22;21.13;;;12.10;;
665;SDS011;315;48.738;9.126;2023-12-04T04:53:48;13.37;;;10.97;;
665;SDS011;315;48.738;9.126;2023-12-04T04:56:14;18.83;;;12.00;;
665;SDS011;315;48.738;9.126;2023-12-04T04:58:40;16.00;;;11.10;;
665;SDS011;315;48.738;9.126;2023-12-04T05:01:06;13.10;;;10.83;;
665;SDS011;315;48.738;9.126;2023-12-04T05:03:32;15.07;;;9.57;;
665;SDS011;315;48.738;9.126;2023-12-04T05:05:57;14.40;;;10.00;;
665;SDS011;315;48.738;9.126;2023-12-04T05:08:23;13.77;;;9.60;;
665;SDS011;315;48.738;9.126;2023-12-04T05:10:48;13.73;;;9.50;;
665;SDS011;315;48.738;9.126;2023-12-04T05:13:14;13.87;;;10.50;;
665;SDS011;315;48.738;9.126;2023-12-04T05:15:39;14.90;;;10.50;;
665;SDS011;315;48.738;9.126;2023-12-04T05:18:05;10.77;;;8.37;;
665;SDS011;315;48.738;9.126;2023-12-04T05:20:30;13.47;;;9.53;;
665;SDS011;315;48.738;9.126;2023-12-04T05:22:59;14.30;;;10.63;;
665;SDS011;315;48.738;9.126;2023-12-04T05:25:24;14.90;;;9.80;;
665;SDS011;315;48.738;9.126;2023-12-04T05:27:50;13.87;;;9.60;;
665;SDS011;315;48.738;9.126;2023-12-04T05:30:15;15.53;;;9.60;;
665;SDS011;315;48.738;9.126;2023-12-04T05:32:41;16.60;;;9.70;;
665;SDS011;315;48.738;9.126;2023-12-04T05:35:06;19.43;;;10.20;;
665;SDS011;315;48.738;9.126;2023-12-04T05:37:32;16.80;;;10.73;;
665;SDS011;315;48.738;9.126;2023-12-04T05:39:57;14.87;;;9.97;;
665;SDS011;315;48.738;9.126;2023-12-04T05:42:23;13.07;;;10.30;;
665;SDS011;315;48.738;9.126;2023-12-04T05:44:49;12.30;;;8.27;;
665;SDS011;315;48.738;9.126;2023-12-04T05:47:14;14.43;;;10.13;;
665;SDS011;315;48.738;9.126;2023-12-04T05:49:40;13.90;;;10.97;;
665;SDS011;315;48.738;9.126;2023-12-04T05:52:06;14.67;;;11.47;;
665;SDS011;315;48.738;9.126;2023-12-04T05:54:31;17.60;;;11.67;;
665;SDS011;315;48.738;9.126;2023-12-04T05:56:57;15.60;;;11.30;;
665;SDS011;315;48.738;9.126;2023-12-04T05:59:23;14.30;;;11.10;;
665;SDS011;315;48.738;9.126;2023-12-04T06:01:48;12.17;;;10.07;;
665;SDS011;315;48.738;9.126;2023-12-04T06:04:14;14.23;;;11.23;;
665;SDS011;315;48.738;9.126;2023-12-04T06:06:39;19.50;;;10.90;;
665;SDS011;315;48.738;9.126;2023-12-04T06:09:05;14.00;;;10.90;;
665;SDS011;315;48.738;9.126;2023-12-04T06:11:31;17.47;;;10.93;;
665;SDS011;315;48.738;9.126;2023-12-04T06:13:56;13.57;;;12.17;;
665;SDS011;315;48.738;9.126;2023-12-04T06:16:22;12.20;;;10.23;;
665;SDS011;315;48.738;9.126;2023-12-04T06:18:47;17.00;;;11.10;;
665;SDS011;315;48.738;9.126;2023-12-04T06:21:13;14.73;;;11.40;;
665;SDS011;315;48.738;9.126;2023-12-04T06:23:39;19.37;;;11.97;;
665;SDS011;315;48.738;9.126;2023-12-04T06:26:05;14.53;;;10.23;;
665;SDS011;315;48.738;9.126;2023-12-04T06:28:31;15.23;;;10.50;;
665;SDS011;315;48.738;9.126;2023-12-04T06:30:57;15.90;;;12.13;;
665;SDS011;315;48.738;9.126;2023-12-04T06:33:23;15.00;;;11.63;;
665;SDS011;315;48.738;9.126;2023-12-04T06:35:49;16.40;;;11.13;;
665;SDS011;315;48.738;9.126;2023-12-04T06:38:15;17.43;;;11.43;;
665;SDS011;315;48.738;9.126;2023-12-04T06:40:43;19.20;;;12.60;;
665;SDS011;315;48.738;9.126;2023-12-04T06:43:09;16.33;;;11.40;;
665;SDS011;315;48.738;9.126;2023-12-04T06:45:35;21.60;;;11.33;;
665;SDS011;315;48.738;9.126;2023-12-04T06:48:01;13.97;;;9.67;;
665;SDS011;315;48.738;9.126;2023-12-04T06:50:26;16.00;;;10.17;;
665;SDS011;315;48.738;9.126;2023-12-04T06:52:52;10.33;;;8.60;;
665;SDS011;315;48.738;9.126;2023-12-04T06:55:17;13.40;;;10.30;;
665;SDS011;315;48.738;9.126;2023-12-04T06:57:43;14.50;;;9.90;;
665;SDS011;315;48.738;9.126;2023-12-04T07:00:09;16.10;;;10.07;;
665;SDS011;315;48.738;9.126;2023-12-04T07:02:39;11.17;;;8.63;;
665;SDS011;315;48.738;9.126;2023-12-04T07:05:05;17.47;;;11.20;;
665;SDS011;315;48.738;9.126;2023-12-04T07:07:31;15.03;;;11.30;;
665;SDS011;315;48.738;9.126;2023-12-04T07:09:57;14.40;;;10.53;;
665;SDS011;315;48.738;9.126;2023-12-04T07:12:22;14.60;;;10.63;;
665;SDS011;315;48.738;9.126;2023-12-04T07:14:48;15.23;;;11.47;;
665;SDS011;315;48.738;9.126;2023-12-04T07:17:13;14.77;;;10.83;;
665;SDS011;315;48.738;9.126;2023-12-04T07:19:40;17.50;;;12.03;;
665;SDS011;315;48.738;9.126;2023-12-04T07:22:06;20.30;;;13.13;;
665;SDS011;315;48.738;9.126;2023-12-04T07:24:32;18.13;;;11.90;;
665;SDS011;315;48.738;9.126;2023-12-04T07:26:58;15.40;;;10.57;;
665;SDS011;315;48.738;9.126;2023-12-04T07:29:23;18.70;;;11.83;;
665;SDS011;315;48.738;9.126;2023-12-04T07:31:49;19.47;;;13.00;;
665;SDS011;315;48.738;9.126;2023-12-04T07:34:14;13.67;;;10.97;;
665;SDS011;315;48.738;9.126;2023-12-04T07:36:40;20.53;;;12.30;;
665;SDS011;315;48.738;9.126;2023-12-04T07:39:06;18.40;;;12.83;;
665;SDS011;315;48.738;9.126;2023-12-04T07:41:31;15.90;;;11.60;;
665;SDS011;315;48.738;9.126;2023-12-04T07:43:57;19.63;;;11.67;;
665;SDS011;315;48.738;9.126;2023-12-04T07:46:23;17.20;;;9.90;;
665;SDS011;315;48.738;9.126;2023-12-04T07:48:48;13.23;;;9.50;;
665;SDS011;315;48.738;9.126;2023-12-04T07:51:14;15.50;;;11.60;;
665;SDS011;315;48.738;9.126;2023-12-04T07:53:39;15.07;;;11.80;;
665;SDS011;315;48.738;9.126;2023-12-04T07:56:05;13.43;;;10.70;;
665;SDS011;315;48.738;9.126;2023-12-04T07:58:31;14.80;;;10.90;;
665;SDS011;315;48.738;9.126;2023-12-04T08:00:57;14.53;;;10.57;;
665;SDS011;315;48.738;9.126;2023-12-04T08:03:23;16.27;;;10.80;;
665;SDS011;315;48.738;9.126;2023-12-04T08:05:49;13.47;;;10.33;;
665;SDS011;315;48.738;9.126;2023-12-04T08:08:18;18.73;;;10.43;;
665;SDS011;315;48.738;9.126;2023-12-04T08:10:44;12.30;;;10.60;;
665;SDS011;315;48.738;9.126;2023-12-04T08:13:09;13.67;;;10.43;;
665;SDS011;315;48.738;9.126;2023-12-04T08:15:35;12.77;;;9.67;;
665;SDS011;315;48.738;9.126;2023-12-04T08:18:00;13.20;;;11.13;;
665;SDS011;315;48.738;9.126;2023-12-04T08:20:26;13.70;;;10.10;;
665;SDS011;315;48.738;9.126;2023-12-04T08:22:52;12.67;;;9.23;;
665;SDS011;315;48.738;9.126;2023-12-04T08:25:17;18.57;;;12.10;;
665;SDS011;315;48.738;9.126;2023-12-04T08:27:43;16.70;;;12.40;;
665;SDS011;315;48.738;9.126;2023-12-04T08:30:09;22.67;;;11.43;;
665;SDS011;315;48.738;9.126;2023-12-04T08:32:34;13.70;;;9.90;;
665;SDS011;315;48.738;9.126;2023-12-04T08:35:00;20.30;;;11.40;;
665;SDS011;315;48.738;9.126;2023-12-04T08:37:25;13.30;;;9.93;;
665;SDS011;315;48.738;9.126;2023-12-04T08:39:51;14.90;;;9.60;;
665;SDS011;315;48.738;9.126;2023-12-04T08:42:16;13.20;;;9.90;;
665;SDS011;315;48.738;9.126;2023-12-04T08:44:43;13.77;;;10.40;;
665;SDS011;315;48.738;9.126;2023-12-04T08:47:10;14.23;;;9.07;;
665;SDS011;315;48.738;9.126;2023-12-04T08:49:37;15.07;;;9.80;;
665;SDS011;315;48.738;9.126;2023-12-04T08:52:05;12.70;;;8.90;;
665;SDS011;315;48.738;9.126;2023-12-04T08:54:31;14.53;;;9.50;;
665;SDS011;315;48.738;9.126;2023-12-04T08:56:56;15.50;;;10.20;;
665;SDS011;315;48.738;9.126;2023-12-04T08:59:22;21.60;;;17.10;;
665;SDS011;315;48.738;9.126;2023-12-04T09:01:47;11.27;;;9.17;;
665;SDS011;315;48.738;9.126;2023-12-04T09:04:13;12.40;;;8.77;;
665;SDS011;315;48.738;9.126;2023-12-04T09:06:38;12.80;;;8.17;;
665;SDS011;315;48.738;9.126;2023-12-04T09:09:04;14.27;;;9.83;;
665;SDS011;315;48.738;9.126;2023-12-04T09:11:30;12.67;;;9.47;;
665;SDS011;315;48.738;9.126;2023-12-04T09:13:55;12.57;;;10.30;;
665;SDS011;315;48.738;9.126;2023-12-04T09:16:21;14.40;;;10.27;;
665;SDS011;315;48.738;9.126;2023-12-04T09:18:46;12.37;;;9.03;;
665;SDS011;315;48.738;9.126;2023-12-04T09:21:12;12.13;;;8.90;;
665;SDS011;315;48.738;9.126;2023-12-04T09:23:37;14.97;;;8.93;;
665;SDS011;315;48.738;9.126;2023-12-04T09:26:03;12.03;;;8.77;;
665;SDS011;315;48.738;9.126;2023-12-04T09:28:29;13.17;;;8.83;;
665;SDS011;315;48.738;9.126;2023-12-04T09:30:54;17.23;;;10.07;;
665;SDS011;315;48.738;9.126;2023-12-04T09:33:20;12.10;;;8.97;;
665;SDS011;315;48.738;9.126;2023-12-04T09:35:45;11.70;;;8.47;;
665;SDS011;315;48.738;9.126;2023-12-04T09:38:11;15.30;;;10.70;;
665;SDS011;315;48.738;9.126;2023-12-04T09:40:37;11.73;;;9.57;;
665;SDS011;315;48.738;9.126;2023-12-04T09:43:02;10.53;;;9.43;;
665;SDS011;315;48.738;9.126;2023-12-04T09:45:30;12.77;;;8.67;;
665;SDS011;315;48.738;9.126;2023-12-04T09:47:57;10.53;;;8.43;;
665;SDS011;315;48.738;9.126;2023-12-04T09:50:24;10.50;;;8.13;;
665;SDS011;315;48.738;9.126;2023-12-04T09:52:50;14.37;;;8.60;;
665;SDS011;315;48.738;9.126;2023-12-04T09:55:17;11.33;;;8.83;;
665;SDS011;315;48.738;9.126;2023-12-04T09:57:43;13.87;;;8.43;;
665;SDS011;315;48.738;9.126;2023-12-04T10:00:10;12.03;;;10.00;;
665;SDS011;315;48.738;9.126;2023-12-04T10:02:37;14.00;;;10.30;;
665;SDS011;315;48.738;9.126;2023-12-04T10:05:04;10.47;;;8.13;;
665;SDS011;315;48.738;9.126;2023-12-04T10:07:31;12.47;;;9.47;;
665;SDS011;315;48.738;9.126;2023-12-04T10:09:56;14.17;;;8.77;;
665;SDS011;315;48.738;9.126;2023-12-04T10:12:22;11.77;;;8.13;;
665;SDS011;315;48.738;9.126;2023-12-04T10:15:07;13.90;;;10.20;;
665;SDS011;315;48.738;9.126;2023-12-04T10:17:37;12.60;;;9.60;;
665;SDS011;315;48.738;9.126;2023-12-04T10:20:06;12.70;;;9.00;;
665;SDS011;315;48.738;9.126;2023-12-04T10:22:54;11.13;;;8.77;;
665;SDS011;315;48.738;9.126;2023-12-04T10:25:20;11.33;;;8.17;;
665;SDS011;315;48.738;9.126;2023-12-04T10:27:46;11.07;;;8.33;;
665;SDS011;315;48.738;9.126;2023-12-04T10:30:22;11.10;;;9.60;;
665;SDS011;315;48.738;9.126;2023-12-04T10:32:59;14.70;;;8.77;;
665;SDS011;315;48.738;9.126;2023-12-04T10:35:31;13.13;;;9.73;;
665;SDS011;315;48.738;9.126;2023-12-04T10:37:57;13.47;;;9.80;;
665;SDS011;315;48.738;9.126;2023-12-04T10:40:31;12.17;;;9.87;;
665;SDS011;315;48.738;9.126;2023-12-04T10:43:17;9.50;;;8.00;;
665;SDS011;315;48.738;9.126;2023-12-04T10:45:45;11.57;;;8.70;;
665;SDS011;315;48.738;9.126;2023-12-04T10:48:11;13.70;;;9.57;;
665;SDS011;315;48.738;9.126;2023-12-04T10:50:39;11.07;;;7.87;;
665;SDS011;315;48.738;9.126;2023-12-04T10:53:06;12.97;;;8.70;;
665;SDS011;315;48.738;9.126;2023-12-04T10:55:36;10.27;;;8.43;;
665;SDS011;315;48.738;9.126;2023-12-04T10:58:02;12.30;;;9.07;;
665;SDS011;315;48.738;9.126;2023-12-04T11:00:34;20.90;;;10.50;;
665;SDS011;315;48.738;9.126;2023-12-04T11:03:03;13.00;;;9.00;;
665;SDS011;315;48.738;9.126;2023-12-04T11:05:33;11.73;;;8.80;;
665;SDS011;315;48.738;9.126;2023-12-04T11:08:02;12.20;;;10.20;;
665;SDS011;315;48.738;9.126;2023-12-04T11:10:30;12.33;;;9.23;;
665;SDS011;315;48.738;9.126;2023-12-04T11:12:59;10.70;;;8.10;;
665;SDS011;315;48.738;9.126;2023-12-04T11:15:31;12.70;;;8.20;;
665;SDS011;315;48.738;9.126;2023-12-04T11:18:03;14.17;;;9.63;;
665;SDS011;315;48.738;9.126;2023-12-04T11:20:31;13.43;;;9.60;;
665;SDS011;315;48.738;9.126;2023-12-04T11:23:04;11.53;;;9.57;;
665;SDS011;315;48.738;9.126;2023-12-04T11:25:31;14.40;;;9.10;;
665;SDS011;315;48.738;9.126;2023-12-04T11:27:59;12.07;;;8.73;;
665;SDS011;315;48.738;9.126;2023-12-04T11:30:26;12.17;;;10.13;;
665;SDS011;315;48.738;9.126;2023-12-04T11:32:53;12.67;;;8.43;;
665;SDS011;315;48.738;9.126;2023-12-04T11:35:21;12.90;;;9.37;;
665;SDS011;315;48.738;9.126;2023-12-04T11:37:50;13.10;;;10.13;;
665;SDS011;315;48.738;9.126;2023-12-04T11:40:17;13.30;;;9.80;;
665;SDS011;315;48.738;9.126;2023-12-04T11:42:42;14.43;;;10.57;;
665;SDS011;315;48.738;9.126;2023-12-04T11:45:08;13.67;;;10.90;;
665;SDS011;315;48.738;9.126;2023-12-04T11:47:50;10.80;;;9.63;;
665;SDS011;315;48.738;9.126;2023-12-04T11:50:19;11.43;;;9.70;;
665;SDS011;315;48.738;9.126;2023-12-04T11:52:46;12.17;;;9.70;;
665;SDS011;315;48.738;9.126;2023-12-04T11:55:15;14.13;;;11.40;;
665;SDS011;315;48.738;9.126;2023-12-04T11:57:42;10.70;;;8.40;;
665;SDS011;315;48.738;9.126;2023-12-04T12:00:11;16.77;;;10.27;;
665;SDS011;315;48.738;9.126;2023-12-04T12:05:22;10.67;;;9.40;;
665;SDS011;315;48.738;9.126;2023-12-04T12:07:48;11.27;;;9.53;;
665;SDS011;315;48.738;9.126;2023-12-04T12:10:15;12.07;;;9.83;;
665;SDS011;315;48.738;9.126;2023-12-04T12:12:42;15.47;;;10.03;;
665;SDS011;315;48.738;9.126;2023-12-04T12:15:11;13.90;;;10.93;;
665;SDS011;315;48.738;9.126;2023-12-04T12:17:37;11.43;;;9.70;;
665;SDS011;315;48.738;9.126;2023-12-04T12:20:05;16.00;;;11.73;;
665;SDS011;315;48.738;9.126;2023-12-04T12:22:32;12.73;;;9.27;;
665;SDS011;315;48.738;9.126;2023-12-04T12:24:58;13.20;;;9.57;;
665;SDS011;315;48.738;9.126;2023-12-04T12:27:25;11.50;;;9.27;;
665;SDS011;315;48.738;9.126;2023-12-04T12:29:50;11.67;;;10.30;;
665;SDS011;315;48.738;9.126;2023-12-04T12:32:16;13.67;;;10.63;;
665;SDS011;315;48.738;9.126;2023-12-04T12:34:41;14.97;;;10.40;;
665;SDS011;315;48.738;9.126;2023-12-04T12:37:07;14.40;;;10.60;;
665;SDS011;315;48.738;9.126;2023-12-04T12:39:34;15.60;;;10.90;;
665;SDS011;315;48.738;9.126;2023-12-04T12:42:00;14.73;;;10.57;;
665;SDS011;315;48.738;9.126;2023-12-04T12:44:26;10.47;;;9.40;;
665;SDS011;315;48.738;9.126;2023-12-04T12:46:53;13.60;;;10.57;;
665;SDS011;315;48.738;9.126;2023-12-04T12:49:18;13.60;;;11.43;;
665;SDS011;315;48.738;9.126;2023-12-04T12:51:45;17.30;;;12.17;;
665;SDS011;315;48.738;9.126;2023-12-04T12:54:11;14.10;;;10.47;;
665;SDS011;315;48.738;9.126;2023-12-04T12:56:36;16.57;;;11.87;;
665;SDS011;315;48.738;9.126;2023-12-04T12:59:02;13.57;;;11.73;;
665;SDS011;315;48.738;9.126;2023-12-04T13:01:31;16.07;;;13.73;;
665;SDS011;315;48.738;9.126;2023-12-04T13:03:57;20.27;;;15.43;;
665;SDS011;315;48.738;9.126;2023-12-04T13:06:23;21.17;;;14.43;;
665;SDS011;315;48.738;9.126;2023-12-04T13:08:49;16.90;;;14.10;;
665;SDS011;315;48.738;9.126;2023-12-04T13:11:14;19.43;;;13.57;;
665;SDS011;315;48.738;9.126;2023-12-04T13:13:40;19.80;;;15.03;;
665;SDS011;315;48.738;9.126;2023-12-04T13:16:06;20.70;;;15.90;;
665;SDS011;315;48.738;9.126;2023-12-04T13:18:31;19.30;;;14.07;;
665;SDS011;315;48.738;9.126;2023-12-04T13:21:00;23.77;;;15.60;;
665;SDS011;315;48.738;9.126;2023-12-04T13:23:26;22.30;;;17.70;;
665;SDS011;315;48.738;9.126;2023-12-04T13:25:51;19.60;;;14.50;;
665;SDS011;315;48.738;9.126;2023-12-04T13:28:19;15.23;;;13.53;;
665;SDS011;315;48.738;9.126;2023-12-04T13:30:45;25.80;;;15.53;;
665;SDS011;315;48.738;9.126;2023-12-04T13:33:11;20.70;;;16.00;;
665;SDS011;315;48.738;9.126;2023-12-04T13:35:36;22.40;;;16.80;;
665;SDS011;315;48.738;9.126;2023-12-04T13:38:02;19.67;;;16.17;;
665;SDS011;315;48.738;9.126;2023-12-04T13:40:27;21.03;;;15.87;;
665;SDS011;315;48.738;9.126;2023-12-04T13:42:57;23.10;;;17.43;;
665;SDS011;315;48.738;9.126;2023-12-04T13:45:40;21.90;;;16.30;;
665;SDS011;315;48.738;9.126;2023-12-04T13:48:06;24.13;;;17.77;;
665;SDS011;315;48.738;9.126;2023-12-04T13:50:31;23.27;;;17.40;;
665;SDS011;315;48.738;9.126;2023-12-04T13:52:57;21.20;;;18.13;;
665;SDS011;315;48.738;9.126;2023-12-04T13:55:25;20.97;;;15.70;;
665;SDS011;315;48.738;9.126;2023-12-04T13:58:21;22.20;;;15.57;;
665;SDS011;315;48.738;9.126;2023-12-04T14:01:09;17.87;;;15.27;;
665;SDS011;315;48.738;9.126;2023-12-04T14:03:39;20.13;;;15.57;;
665;SDS011;315;48.738;9.126;2023-12-04T14:06:06;23.97;;;15.10;;
665;SDS011;315;48.738;9.126;2023-12-04T14:08:32;18.73;;;15.57;;
665;SDS011;315;48.738;9.126;2023-12-04T14:10:57;20.30;;;16.27;;
665;SDS011;315;48.738;9.126;2023-12-04T14:13:23;18.33;;;13.63;;
665;SDS011;315;48.738;9.126;2023-12-04T14:15:49;20.73;;;16.13;;
665;SDS011;315;48.738;9.126;2023-12-04T14:18:14;22.00;;;15.50;;
665;SDS011;315;48.738;9.126;2023-12-04T14:20:40;23.63;;;16.90;;
665;SDS011;315;48.738;9.126;2023-12-04T14:23:05;23.10;;;17.13;;
665;SDS011;315;48.738;9.126;2023-12-04T14:25:31;21.37;;;16.33;;
665;SDS011;315;48.738;9.126;2023-12-04T14:27:56;22.03;;;17.80;;
665;SDS011;315;48.738;9.126;2023-12-04T14:30:22;18.33;;;15.70;;
665;SDS011;315;48.738;9.126;2023-12-04T14:32:48;18.37;;;16.47;;
665;SDS011;315;48.738;9.126;2023-12-04T14:35:13;23.60;;;17.00;;
665;SDS011;315;48.738;9.126;2023-12-04T14:37:39;21.70;;;16.23;;
665;SDS011;315;48.738;9.126;2023-12-04T14:40:05;21.17;;;15.37;;
665;SDS011;315;48.738;9.126;2023-12-04T14:42:31;18.83;;;15.00;;
665;SDS011;315;48.738;9.126;2023-12-04T14:44:57;24.33;;;17.40;;
665;SDS011;315;48.738;9.126;2023-12-04T14:47:22;24.63;;;15.90;;
665;SDS011;315;48.738;9.126;2023-12-04T14:49:48;19.90;;;16.20;;
665;SDS011;315;48.738;9.126;2023-12-04T14:52:18;23.87;;;16.00;;
665;SDS011;315;48.738;9.126;2023-12-04T14:54:46;21.80;;;15.97;;
665;SDS011;315;48.738;9.126;2023-12-04T14:57:30;31.90;;;18.70;;
665;SDS011;315;48.738;9.126;2023-12-04T15:00:05;26.90;;;17.17;;
665;SDS011;315;48.738;9.126;2023-12-04T15:02:35;27.20;;;18.20;;
665;SDS011;315;48.738;9.126;2023-12-04T15:05:22;25.27;;;16.87;;
665;SDS011;315;48.738;9.126;2023-12-04T15:08:05;22.47;;;16.77;;
665;SDS011;315;48.738;9.126;2023-12-04T15:10:54;23.03;;;17.30;;
665;SDS011;315;48.738;9.126;2023-12-04T15:13:37;26.93;;;17.97;;
665;SDS011;315;48.738;9.126;2023-12-04T15:16:12;23.03;;;17.80;;
665;SDS011;315;48.738;9.126;2023-12-04T15:18:38;25.30;;;17.50;;
665;SDS011;315;48.738;9.126;2023-12-04T15:21:24;30.97;;;20.80;;